sensor_id;sensor_type;location;lat;lon;timestamp;pressure;altitude;pressure_sealevel;temperature;humidity
12172;BME280;6149;52.418;13.668;2022-08-19T00:00:35;100550.50;;;21.13;100.00
12172;BME280;6149;52.418;13.668;2022-08-19T00:03:02;100549.66;;;21.12;100.00
12172;BME280;6149;52.418;13.668;2022-08-19T00:05:29;100536.19;;;21.12;100.00
12172;BME280;6149;52.418;13.668;2022-08-19T00:07:55;100545.13;;;21.13;100.00
12172;BME280;6149;52.418;13.668;2022-08-19T00:10:22;100543.41;;;21.12;100.00
12172;BME280;6149;52.418;13.668;2022-08-19T00:12:49;100533.66;;;21.11;100.00
12172;BME280;6149;52.418;13.668;2022-08-19T00:15:19;100525.91;;;21.08;100.00
12172;BME280;6149;52.418;13.668;2022-08-19T00:17:47;100517.13;;;21.06;100.00
12172;BME280;6149;52.418;13.668;2022-08-19T00:20:17;100510.06;;;21.05;100.00
12172;BME280;6149;52.418;13.668;2022-08-19T00:22:45;100496.06;;;21.01;100.00
12172;BME280;6149;52.418;13.668;2022-08-19T00:25:13;100489.84;;;21.00;100.00
12172;BME280;6149;52.418;13.668;2022-08-19T00:27:40;100493.53;;;20.99;100.00
12172;BME280;6149;52.418;13.668;2022-08-19T00:30:09;100490.16;;;20.97;100.00
12172;BME280;6149;52.418;13.668;2022-08-19T00:32:39;100494.13;;;20.93;100.00
12172;BME280;6149;52.418;13.668;2022-08-19T00:35:07;100485.38;;;20.91;100.00
12172;BME280;6149;52.418;13.668;2022-08-19T00:37:35;100489.34;;;20.87;100.00
12172;BME280;6149;52.418;13.668;2022-08-19T00:40:04;100490.03;;;20.89;100.00
12172;BME280;6149;52.418;13.668;2022-08-19T00:42:32;100504.78;;;20.85;100.00
12172;BME280;6149;52.418;13.668;2022-08-19T00:44:59;100514.69;;;20.85;100.00
12172;BME280;6149;52.418;13.668;2022-08-19T00:47:26;100516.53;;;20.84;100.00
12172;BME280;6149;52.418;13.668;2022-08-19T00:49:56;100523.44;;;20.87;100.00
12172;BME280;6149;52.418;13.668;2022-08-19T00:52:27;100530.81;;;20.85;100.00
12172;BME280;6149;52.418;13.668;2022-08-19T00:54:57;100539.03;;;20.83;100.00
12172;BME280;6149;52.418;13.668;2022-08-19T00:57:28;100550.59;;;20.93;100.00
12172;BME280;6149;52.418;13.668;2022-08-19T01:00:01;100533.47;;;20.94;100.00
12172;BME280;6149;52.418;13.668;2022-08-19T01:02:31;100534.13;;;20.79;100.00
12172;BME280;6149;52.418;13.668;2022-08-19T01:05:04;100553.81;;;20.69;100.00
12172;BME280;6149;52.418;13.668;2022-08-19T01:07:34;100560.22;;;20.59;100.00
12172;BME280;6149;52.418;13.668;2022-08-19T01:10:03;100575.94;;;20.54;100.00
12172;BME280;6149;52.418;13.668;2022-08-19T01:12:31;100540.72;;;20.47;100.00
12172;BME280;6149;52.418;13.668;2022-08-19T01:14:58;100514.16;;;20.44;100.00
12172;BME280;6149;52.418;13.668;2022-08-19T01:17:26;100499.59;;;20.47;100.00
12172;BME280;6149;52.418;13.668;2022-08-19T01:19:53;100498.19;;;20.43;100.00
12172;BME280;6149;52.418;13.668;2022-08-19T01:22:27;100479.97;;;20.36;100.00
12172;BME280;6149;52.418;13.668;2022-08-19T01:24:56;100472.22;;;20.33;100.00
12172;BME280;6149;52.418;13.668;2022-08-19T01:27:24;100458.63;;;20.35;100.00
12172;BME280;6149;52.418;13.668;2022-08-19T01:29:51;100472.50;;;20.30;100.00
12172;BME280;6149;52.418;13.668;2022-08-19T01:32:17;100456.69;;;20.27;100.00
12172;BME280;6149;52.418;13.668;2022-08-19T01:34:45;100457.53;;;20.28;100.00
12172;BME280;6149;52.418;13.668;2022-08-19T01:37:12;100455.28;;;20.23;100.00
12172;BME280;6149;52.418;13.668;2022-08-19T01:39:42;100432.94;;;20.23;100.00
12172;BME280;6149;52.418;13.668;2022-08-19T01:42:09;100439.47;;;20.20;100.00
12172;BME280;6149;52.418;13.668;2022-08-19T01:44:38;100433.38;;;20.18;100.00
12172;BME280;6149;52.418;13.668;2022-08-19T01:47:06;100431.53;;;20.19;100.00
12172;BME280;6149;52.418;13.668;2022-08-19T01:49:35;100451.31;;;20.27;100.00
12172;BME280;6149;52.418;13.668;2022-08-19T01:52:03;100458.81;;;20.24;100.00
12172;BME280;6149;52.418;13.668;2022-08-19T01:54:31;100453.72;;;20.21;100.00
12172;BME280;6149;52.418;13.668;2022-08-19T01:57:03;100446.25;;;20.15;100.00
12172;BME280;6149;52.418;13.668;2022-08-19T01:59:32;100443.84;;;20.12;100.00
12172;BME280;6149;52.418;13.668;2022-08-19T02:02:02;100432.13;;;20.13;100.00
12172;BME280;6149;52.418;13.668;2022-08-19T02:04:32;100428.00;;;20.18;100.00
12172;BME280;6149;52.418;13.668;2022-08-19T02:06:58;100448.34;;;20.21;100.00
12172;BME280;6149;52.418;13.668;2022-08-19T02:09:26;100419.13;;;20.18;100.00
12172;BME280;6149;52.418;13.668;2022-08-19T02:11:52;100437.34;;;20.14;100.00
12172;BME280;6149;52.418;13.668;2022-08-19T02:14:21;100432.69;;;20.16;100.00
12172;BME280;6149;52.418;13.668;2022-08-19T02:16:47;100425.91;;;20.12;100.00
12172;BME280;6149;52.418;13.668;2022-08-19T02:19:14;100426.06;;;20.11;100.00
12172;BME280;6149;52.418;13.668;2022-08-19T02:21:41;100413.91;;;20.07;100.00
12172;BME280;6149;52.418;13.668;2022-08-19T02:24:09;100411.38;;;20.05;100.00
12172;BME280;6149;52.418;13.668;2022-08-19T02:26:37;100411.09;;;20.08;100.00
12172;BME280;6149;52.418;13.668;2022-08-19T02:29:03;100415.94;;;20.05;100.00
12172;BME280;6149;52.418;13.668;2022-08-19T02:31:32;100428.19;;;20.07;100.00
12172;BME280;6149;52.418;13.668;2022-08-19T02:34:00;100424.13;;;20.03;100.00
12172;BME280;6149;52.418;13.668;2022-08-19T02:36:26;100434.88;;;20.03;100.00
12172;BME280;6149;52.418;13.668;2022-08-19T02:38:54;100431.88;;;20.06;100.00
12172;BME280;6149;52.418;13.668;2022-08-19T02:41:23;100432.84;;;20.05;100.00
12172;BME280;6149;52.418;13.668;2022-08-19T02:43:53;100426.25;;;19.99;100.00
12172;BME280;6149;52.418;13.668;2022-08-19T02:46:23;100419.63;;;20.03;100.00
12172;BME280;6149;52.418;13.668;2022-08-19T02:48:55;100423.28;;;20.02;100.00
12172;BME280;6149;52.418;13.668;2022-08-19T02:51:26;100423.59;;;19.99;100.00
12172;BME280;6149;52.418;13.668;2022-08-19T02:53:56;100432.63;;;19.98;100.00
12172;BME280;6149;52.418;13.668;2022-08-19T02:56:23;100444.22;;;19.99;100.00
12172;BME280;6149;52.418;13.668;2022-08-19T02:58:53;100440.38;;;20.01;100.00
12172;BME280;6149;52.418;13.668;2022-08-19T03:01:22;100436.16;;;19.99;100.00
12172;BME280;6149;52.418;13.668;2022-08-19T03:03:54;100439.81;;;19.98;100.00
12172;BME280;6149;52.418;13.668;2022-08-19T03:06:21;100443.22;;;20.00;100.00
12172;BME280;6149;52.418;13.668;2022-08-19T03:08:50;100443.22;;;20.00;100.00
12172;BME280;6149;52.418;13.668;2022-08-19T03:11:19;100443.78;;;20.03;100.00
12172;BME280;6149;52.418;13.668;2022-08-19T03:13:48;100429.94;;;19.98;100.00
12172;BME280;6149;52.418;13.668;2022-08-19T03:16:17;100433.47;;;19.99;100.00
12172;BME280;6149;52.418;13.668;2022-08-19T03:18:45;100426.13;;;20.01;100.00
12172;BME280;6149;52.418;13.668;2022-08-19T03:21:16;100411.28;;;19.97;100.00
12172;BME280;6149;52.418;13.668;2022-08-19T03:23:43;100420.34;;;19.96;100.00
12172;BME280;6149;52.418;13.668;2022-08-19T03:26:10;100404.19;;;20.06;100.00
12172;BME280;6149;52.418;13.668;2022-08-19T03:28:37;100406.72;;;20.07;100.00
12172;BME280;6149;52.418;13.668;2022-08-19T03:31:07;100419.91;;;20.00;100.00
12172;BME280;6149;52.418;13.668;2022-08-19T03:33:38;100417.50;;;19.97;100.00
12172;BME280;6149;52.418;13.668;2022-08-19T03:36:07;100433.75;;;19.96;100.00
12172;BME280;6149;52.418;13.668;2022-08-19T03:38:44;100428.53;;;19.94;100.00
12172;BME280;6149;52.418;13.668;2022-08-19T03:41:15;100441.41;;;19.91;100.00
12172;BME280;6149;52.418;13.668;2022-08-19T03:43:44;100429.38;;;19.95;100.00
12172;BME280;6149;52.418;13.668;2022-08-19T03:46:15;100425.84;;;19.94;100.00
12172;BME280;6149;52.418;13.668;2022-08-19T03:48:43;100429.38;;;19.95;100.00
12172;BME280;6149;52.418;13.668;2022-08-19T03:51:16;100435.75;;;19.94;100.00
12172;BME280;6149;52.418;13.668;2022-08-19T03:53:46;100435.03;;;19.92;100.00
12172;BME280;6149;52.418;13.668;2022-08-19T03:56:14;100430.66;;;19.91;100.00
12172;BME280;6149;52.418;13.668;2022-08-19T03:58:41;100431.94;;;19.87;100.00
12172;BME280;6149;52.418;13.668;2022-08-19T04:01:13;100431.09;;;19.86;100.00
12172;BME280;6149;52.418;13.668;2022-08-19T04:03:43;100431.22;;;19.94;100.00
12172;BME280;6149;52.418;13.668;2022-08-19T04:06:12;100438.72;;;19.91;100.00
12172;BME280;6149;52.418;13.668;2022-08-19T04:08:43;100436.19;;;19.89;100.00
12172;BME280;6149;52.418;13.668;2022-08-19T04:11:14;100448.75;;;19.89;100.00
12172;BME280;6149;52.418;13.668;2022-08-19T04:13:41;100445.06;;;19.90;100.00
12172;BME280;6149;52.418;13.668;2022-08-19T04:16:11;100449.16;;;19.94;100.00
12172;BME280;6149;52.418;13.668;2022-08-19T04:18:40;100445.78;;;19.92;100.00
12172;BME280;6149;52.418;13.668;2022-08-19T04:21:08;100432.50;;;19.90;100.00
12172;BME280;6149;52.418;13.668;2022-08-19T04:23:47;100442.25;;;19.91;100.00
12172;BME280;6149;52.418;13.668;2022-08-19T04:26:14;100439.56;;;19.91;100.00
12172;BME280;6149;52.418;13.668;2022-08-19T04:28:44;100443.22;;;19.90;100.00
12172;BME280;6149;52.418;13.668;2022-08-19T04:31:13;100444.22;;;19.89;100.00
12172;BME280;6149;52.418;13.668;2022-08-19T04:33:42;100446.91;;;19.89;100.00
12172;BME280;6149;52.418;13.668;2022-08-19T04:36:15;100453.13;;;19.90;100.00
12172;BME280;6149;52.418;13.668;2022-08-19T04:38:48;100442.38;;;19.90;100.00
12172;BME280;6149;52.418;13.668;2022-08-19T04:41:15;100443.94;;;19.92;100.00
12172;BME280;6149;52.418;13.668;2022-08-19T04:44:00;100444.34;;;19.97;100.00
12172;BME280;6149;52.418;13.668;2022-08-19T04:46:28;100442.38;;;19.99;100.00
12172;BME280;6149;52.418;13.668;2022-08-19T04:48:57;100444.22;;;19.99;100.00
12172;BME280;6149;52.418;13.668;2022-08-19T04:51:24;100438.69;;;20.00;100.00
12172;BME280;6149;52.418;13.668;2022-08-19T04:53:53;100429.78;;;20.00;100.00
12172;BME280;6149;52.418;13.668;2022-08-19T04:56:20;100426.81;;;20.03;100.00
12172;BME280;6149;52.418;13.668;2022-08-19T04:58:48;100425.97;;;20.02;100.00
12172;BME280;6149;52.418;13.668;2022-08-19T05:01:19;100421.59;;;20.01;100.00
12172;BME280;6149;52.418;13.668;2022-08-19T05:03:46;100422.59;;;20.00;100.00
12172;BME280;6149;52.418;13.668;2022-08-19T05:06:15;100429.78;;;20.00;100.00
12172;BME280;6149;52.418;13.668;2022-08-19T05:08:43;100426.50;;;20.06;100.00
12172;BME280;6149;52.418;13.668;2022-08-19T05:11:15;100427.50;;;20.05;100.00
12172;BME280;6149;52.418;13.668;2022-08-19T05:13:43;100424.66;;;20.07;100.00
12172;BME280;6149;52.418;13.668;2022-08-19T05:16:12;100414.91;;;20.06;100.00
12172;BME280;6149;52.418;13.668;2022-08-19T05:18:40;100420.84;;;20.09;100.00
12172;BME280;6149;52.418;13.668;2022-08-19T05:21:25;100416.31;;;20.10;100.00
12172;BME280;6149;52.418;13.668;2022-08-19T05:24:11;100427.91;;;20.10;100.00
12172;BME280;6149;52.418;13.668;2022-08-19T05:26:43;100416.16;;;20.11;100.00
12172;BME280;6149;52.418;13.668;2022-08-19T05:29:13;100420.84;;;20.09;100.00
12172;BME280;6149;52.418;13.668;2022-08-19T05:31:41;100418.16;;;20.09;100.00
12172;BME280;6149;52.418;13.668;2022-08-19T05:34:09;100412.50;;;20.12;100.00
12172;BME280;6149;52.418;13.668;2022-08-19T05:36:38;100407.81;;;20.14;100.00
12172;BME280;6149;52.418;13.668;2022-08-19T05:39:07;100403.16;;;20.16;100.00
12172;BME280;6149;52.418;13.668;2022-08-19T05:41:35;100405.81;;;20.26;100.00
12172;BME280;6149;52.418;13.668;2022-08-19T05:44:04;100420.34;;;20.33;100.00
12172;BME280;6149;52.418;13.668;2022-08-19T05:46:34;100421.13;;;20.43;100.00
12172;BME280;6149;52.418;13.668;2022-08-19T05:49:02;100425.50;;;20.44;100.00
12172;BME280;6149;52.418;13.668;2022-08-19T05:51:29;100426.06;;;20.48;100.00
12172;BME280;6149;52.418;13.668;2022-08-19T05:53:56;100431.41;;;20.57;100.00
12172;BME280;6149;52.418;13.668;2022-08-19T05:56:23;100441.00;;;20.60;100.00
12172;BME280;6149;52.418;13.668;2022-08-19T05:58:50;100444.09;;;20.65;100.00
12172;BME280;6149;52.418;13.668;2022-08-19T06:01:18;100431.03;;;20.70;100.00
12172;BME280;6149;52.418;13.668;2022-08-19T06:03:45;100433.13;;;20.76;100.00
12172;BME280;6149;52.418;13.668;2022-08-19T06:06:14;100450.81;;;20.79;100.00
12172;BME280;6149;52.418;13.668;2022-08-19T06:08:42;100447.94;;;20.80;100.00
12172;BME280;6149;52.418;13.668;2022-08-19T06:11:16;100453.72;;;20.85;100.00
12172;BME280;6149;52.418;13.668;2022-08-19T06:13:46;100460.63;;;20.88;100.00
12172;BME280;6149;52.418;13.668;2022-08-19T06:16:17;100458.09;;;20.86;100.00
12172;BME280;6149;52.418;13.668;2022-08-19T06:18:48;100456.78;;;20.90;100.00
12172;BME280;6149;52.418;13.668;2022-08-19T06:21:19;100458.34;;;20.93;100.00
12172;BME280;6149;52.418;13.668;2022-08-19T06:23:56;100460.19;;;20.92;100.00
12172;BME280;6149;52.418;13.668;2022-08-19T06:26:27;100458.34;;;20.93;100.00
12172;BME280;6149;52.418;13.668;2022-08-19T06:28:54;100453.03;;;21.01;100.00
12172;BME280;6149;52.418;13.668;2022-08-19T06:31:25;100453.03;;;21.01;100.00
12172;BME280;6149;52.418;13.668;2022-08-19T06:33:53;100450.66;;;20.98;100.00
12172;BME280;6149;52.418;13.668;2022-08-19T06:36:23;100451.34;;;21.00;100.00
12172;BME280;6149;52.418;13.668;2022-08-19T06:38:52;100450.91;;;21.05;100.00
12172;BME280;6149;52.418;13.668;2022-08-19T06:41:19;100450.34;;;21.01;100.00
12172;BME280;6149;52.418;13.668;2022-08-19T06:43:46;100451.34;;;21.00;100.00
12172;BME280;6149;52.418;13.668;2022-08-19T06:46:15;100454.19;;;20.98;100.00
12172;BME280;6149;52.418;13.668;2022-08-19T06:48:45;100455.44;;;21.04;100.00
12172;BME280;6149;52.418;13.668;2022-08-19T06:51:13;100462.50;;;21.05;100.00
12172;BME280;6149;52.418;13.668;2022-08-19T06:53:43;100468.03;;;21.03;100.00
12172;BME280;6149;52.418;13.668;2022-08-19T06:56:11;100482.78;;;20.99;100.00
12172;BME280;6149;52.418;13.668;2022-08-19T06:58:39;100484.31;;;21.02;100.00
12172;BME280;6149;52.418;13.668;2022-08-19T07:01:06;100490.53;;;21.02;100.00
12172;BME280;6149;52.418;13.668;2022-08-19T07:03:34;100484.00;;;21.05;100.00
12172;BME280;6149;52.418;13.668;2022-08-19T07:06:05;100491.78;;;21.08;100.00
12172;BME280;6149;52.418;13.668;2022-08-19T07:08:33;100486.25;;;21.10;100.00
12172;BME280;6149;52.418;13.668;2022-08-19T07:11:01;100489.63;;;21.12;100.00
12172;BME280;6149;52.418;13.668;2022-08-19T07:13:29;100481.41;;;21.13;100.00
12172;BME280;6149;52.418;13.668;2022-08-19T07:16:03;100474.88;;;21.16;100.00
12172;BME280;6149;52.418;13.668;2022-08-19T07:18:30;100479.25;;;21.17;100.00
12172;BME280;6149;52.418;13.668;2022-08-19T07:21:04;100473.06;;;21.16;100.00
12172;BME280;6149;52.418;13.668;2022-08-19T07:23:33;100481.78;;;21.18;100.00
12172;BME280;6149;52.418;13.668;2022-08-19T07:26:05;100480.50;;;21.22;100.00
12172;BME280;6149;52.418;13.668;2022-08-19T07:28:32;100484.59;;;21.26;100.00
12172;BME280;6149;52.418;13.668;2022-08-19T07:30:59;100487.81;;;21.30;100.00
12172;BME280;6149;52.418;13.668;2022-08-19T07:33:27;100491.34;;;21.30;100.00
12172;BME280;6149;52.418;13.668;2022-08-19T07:35:57;100492.75;;;21.34;100.00
12172;BME280;6149;52.418;13.668;2022-08-19T07:38:25;100497.50;;;21.41;100.00
12172;BME280;6149;52.418;13.668;2022-08-19T07:40:52;100496.22;;;21.45;100.00
12172;BME280;6149;52.418;13.668;2022-08-19T07:43:20;100496.06;;;21.46;100.00
12172;BME280;6149;52.418;13.668;2022-08-19T07:45:50;100503.97;;;21.48;100.00
12172;BME280;6149;52.418;13.668;2022-08-19T07:48:21;100505.50;;;21.50;100.00
12172;BME280;6149;52.418;13.668;2022-08-19T07:50:50;100511.09;;;21.57;100.00
12172;BME280;6149;52.418;13.668;2022-08-19T07:53:17;100515.19;;;21.61;100.00
12172;BME280;6149;52.418;13.668;2022-08-19T07:55:45;100512.03;;;21.65;100.00
12172;BME280;6149;52.418;13.668;2022-08-19T07:58:15;100511.72;;;21.68;100.00
12172;BME280;6149;52.418;13.668;2022-08-19T08:00:44;100509.19;;;21.67;100.00
12172;BME280;6149;52.418;13.668;2022-08-19T08:03:14;100510.41;;;21.73;100.00
12172;BME280;6149;52.418;13.668;2022-08-19T08:05:41;100500.41;;;21.83;100.00
12172;BME280;6149;52.418;13.668;2022-08-19T08:08:26;100498.72;;;21.82;100.00
12172;BME280;6149;52.418;13.668;2022-08-19T08:11:12;100513.72;;;21.84;100.00
12172;BME280;6149;52.418;13.668;2022-08-19T08:13:40;100515.78;;;21.90;100.00
12172;BME280;6149;52.418;13.668;2022-08-19T08:16:07;100516.97;;;21.96;100.00
12172;BME280;6149;52.418;13.668;2022-08-19T08:18:33;100524.59;;;22.00;100.00
12172;BME280;6149;52.418;13.668;2022-08-19T08:21:06;100522.69;;;22.11;100.00
12172;BME280;6149;52.418;13.668;2022-08-19T08:23:33;100537.06;;;22.19;100.00
12172;BME280;6149;52.418;13.668;2022-08-19T08:26:00;100524.97;;;22.23;100.00
12172;BME280;6149;52.418;13.668;2022-08-19T08:28:30;100530.03;;;22.26;100.00
12172;BME280;6149;52.418;13.668;2022-08-19T08:30:57;100522.97;;;22.33;100.00
12172;BME280;6149;52.418;13.668;2022-08-19T08:33:26;100522.34;;;22.40;100.00
12172;BME280;6149;52.418;13.668;2022-08-19T08:35:55;100521.72;;;22.46;100.00
12172;BME280;6149;52.418;13.668;2022-08-19T08:38:21;100525.31;;;22.54;100.00
12172;BME280;6149;52.418;13.668;2022-08-19T08:40:50;100530.38;;;22.57;100.00
12172;BME280;6149;52.418;13.668;2022-08-19T08:43:24;100533.06;;;22.57;100.00
12172;BME280;6149;52.418;13.668;2022-08-19T08:46:00;100539.69;;;22.63;100.00
12172;BME280;6149;52.418;13.668;2022-08-19T08:48:37;100541.69;;;22.69;100.00
12172;BME280;6149;52.418;13.668;2022-08-19T08:51:11;100550.47;;;22.71;100.00
12172;BME280;6149;52.418;13.668;2022-08-19T08:53:41;100546.63;;;22.74;100.00
12172;BME280;6149;52.418;13.668;2022-08-19T08:56:09;100538.53;;;22.74;100.00
12172;BME280;6149;52.418;13.668;2022-08-19T08:58:45;100540.44;;;22.81;100.00
12172;BME280;6149;52.418;13.668;2022-08-19T09:01:16;100555.63;;;22.82;100.00
12172;BME280;6149;52.418;13.668;2022-08-19T09:03:44;100555.81;;;22.89;100.00
12172;BME280;6149;52.418;13.668;2022-08-19T09:06:14;100556.34;;;22.92;100.00
12172;BME280;6149;52.418;13.668;2022-08-19T09:08:52;100560.09;;;22.99;100.00
12172;BME280;6149;52.418;13.668;2022-08-19T09:11:37;100557.03;;;23.02;100.00
12172;BME280;6149;52.418;13.668;2022-08-19T09:14:20;100554.19;;;23.04;100.00
12172;BME280;6149;52.418;13.668;2022-08-19T09:17:00;100558.72;;;23.04;100.00
12172;BME280;6149;52.418;13.668;2022-08-19T09:19:29;100565.13;;;23.02;100.00
12172;BME280;6149;52.418;13.668;2022-08-19T09:21:55;100553.53;;;23.10;100.00
12172;BME280;6149;52.418;13.668;2022-08-19T09:24:22;100557.41;;;23.08;100.00
12172;BME280;6149;52.418;13.668;2022-08-19T09:26:48;100551.16;;;22.99;100.00
12172;BME280;6149;52.418;13.668;2022-08-19T09:29:15;100549.63;;;22.96;100.00
12172;BME280;6149;52.418;13.668;2022-08-19T09:31:41;100549.31;;;22.99;100.00
12172;BME280;6149;52.418;13.668;2022-08-19T09:34:09;100560.25;;;22.98;100.00
12172;BME280;6149;52.418;13.668;2022-08-19T09:36:36;100562.78;;;22.99;100.00
12172;BME280;6149;52.418;13.668;2022-08-19T09:39:05;100558.72;;;22.95;100.00
12172;BME280;6149;52.418;13.668;2022-08-19T09:41:32;100549.47;;;22.98;100.00
12172;BME280;6149;52.418;13.668;2022-08-19T09:43:59;100548.78;;;23.04;100.00
12172;BME280;6149;52.418;13.668;2022-08-19T09:46:28;100540.53;;;23.06;100.00
12172;BME280;6149;52.418;13.668;2022-08-19T09:48:59;100533.31;;;23.14;100.00
12172;BME280;6149;52.418;13.668;2022-08-19T09:51:28;100526.41;;;23.20;100.00
12172;BME280;6149;52.418;13.668;2022-08-19T09:53:59;100531.84;;;23.28;100.00
12172;BME280;6149;52.418;13.668;2022-08-19T09:56:27;100524.09;;;23.33;100.00
12172;BME280;6149;52.418;13.668;2022-08-19T09:58:54;100526.13;;;23.31;100.00
12172;BME280;6149;52.418;13.668;2022-08-19T10:01:22;100527.31;;;23.45;100.00
12172;BME280;6149;52.418;13.668;2022-08-19T10:03:52;100526.28;;;23.46;100.00
12172;BME280;6149;52.418;13.668;2022-08-19T10:06:21;100537.78;;;23.48;100.00
12172;BME280;6149;52.418;13.668;2022-08-19T10:08:52;100532.41;;;23.56;100.00
12172;BME280;6149;52.418;13.668;2022-08-19T10:11:19;100539.34;;;23.58;100.00
12172;BME280;6149;52.418;13.668;2022-08-19T10:13:47;100534.63;;;23.60;100.00
12172;BME280;6149;52.418;13.668;2022-08-19T10:16:16;100533.13;;;23.66;100.00
12172;BME280;6149;52.418;13.668;2022-08-19T10:18:47;100528.38;;;23.68;100.00
12172;BME280;6149;52.418;13.668;2022-08-19T10:21:16;100534.97;;;23.65;100.00
12172;BME280;6149;52.418;13.668;2022-08-19T10:23:51;100526.19;;;23.55;100.00
12172;BME280;6149;52.418;13.668;2022-08-19T10:26:24;100524.94;;;23.50;100.00
12172;BME280;6149;52.418;13.668;2022-08-19T10:28:53;100532.03;;;23.51;100.00
12172;BME280;6149;52.418;13.668;2022-08-19T10:31:23;100524.78;;;23.51;100.00
12172;BME280;6149;52.418;13.668;2022-08-19T10:33:51;100527.38;;;23.61;100.00
12172;BME280;6149;52.418;13.668;2022-08-19T10:36:23;100529.91;;;23.62;100.00
12172;BME280;6149;52.418;13.668;2022-08-19T10:38:54;100526.03;;;23.65;100.00
12172;BME280;6149;52.418;13.668;2022-08-19T10:41:26;100523.34;;;23.73;100.00
12172;BME280;6149;52.418;13.668;2022-08-19T10:43:54;100524.34;;;23.64;100.00
12172;BME280;6149;52.418;13.668;2022-08-19T10:46:25;100526.00;;;23.57;100.00
12172;BME280;6149;52.418;13.668;2022-08-19T10:48:53;100524.94;;;23.50;100.00
12172;BME280;6149;52.418;13.668;2022-08-19T10:51:21;100531.53;;;23.47;100.00
12172;BME280;6149;52.418;13.668;2022-08-19T10:54:06;100523.44;;;23.47;100.00
12172;BME280;6149;52.418;13.668;2022-08-19T10:56:33;100537.44;;;23.51;100.00
12172;BME280;6149;52.418;13.668;2022-08-19T10:59:19;100537.97;;;23.54;100.00
12172;BME280;6149;52.418;13.668;2022-08-19T11:01:51;100531.75;;;23.54;100.00
12172;BME280;6149;52.418;13.668;2022-08-19T11:04:19;100539.13;;;23.52;100.00
12172;BME280;6149;52.418;13.668;2022-08-19T11:06:48;100543.69;;;23.51;100.00
12172;BME280;6149;52.418;13.668;2022-08-19T11:09:18;100534.28;;;23.55;100.00
12172;BME280;6149;52.418;13.668;2022-08-19T11:11:46;100547.94;;;23.54;100.00
12172;BME280;6149;52.418;13.668;2022-08-19T11:14:14;100541.69;;;23.53;100.00
12172;BME280;6149;52.418;13.668;2022-08-19T11:16:44;100552.31;;;23.55;100.00
12172;BME280;6149;52.418;13.668;2022-08-19T11:19:12;100545.91;;;23.56;100.00
12172;BME280;6149;52.418;13.668;2022-08-19T11:21:43;100549.47;;;23.56;100.00
12172;BME280;6149;52.418;13.668;2022-08-19T11:24:13;100539.69;;;23.63;100.00
12172;BME280;6149;52.418;13.668;2022-08-19T11:26:43;100538.16;;;23.61;100.00
12172;BME280;6149;52.418;13.668;2022-08-19T11:29:12;100538.00;;;23.62;100.00
12172;BME280;6149;52.418;13.668;2022-08-19T11:31:41;100539.34;;;23.58;100.00
12172;BME280;6149;52.418;13.668;2022-08-19T11:34:13;100548.06;;;23.52;100.00
12172;BME280;6149;52.418;13.668;2022-08-19T11:36:43;100543.34;;;23.46;100.00
12172;BME280;6149;52.418;13.668;2022-08-19T11:39:13;100542.50;;;23.38;100.00
12172;BME280;6149;52.418;13.668;2022-08-19T11:41:41;100552.44;;;23.37;100.00
12172;BME280;6149;52.418;13.668;2022-08-19T11:44:09;100551.94;;;23.33;100.00
12172;BME280;6149;52.418;13.668;2022-08-19T11:46:37;100557.97;;;23.27;100.00
12172;BME280;6149;52.418;13.668;2022-08-19T11:49:05;100564.56;;;23.25;100.00
12172;BME280;6149;52.418;13.668;2022-08-19T11:51:34;100564.56;;;23.25;100.00
12172;BME280;6149;52.418;13.668;2022-08-19T11:54:04;100575.53;;;23.31;100.00
12172;BME280;6149;52.418;13.668;2022-08-19T11:56:31;100576.91;;;23.36;100.00
12172;BME280;6149;52.418;13.668;2022-08-19T11:59:00;100577.72;;;23.28;100.00
12172;BME280;6149;52.418;13.668;2022-08-19T12:01:28;100576.88;;;23.27;100.00
12172;BME280;6149;52.418;13.668;2022-08-19T12:03:56;100577.38;;;23.23;100.00
12172;BME280;6149;52.418;13.668;2022-08-19T12:06:24;100581.91;;;23.22;100.00
12172;BME280;6149;52.418;13.668;2022-08-19T12:08:54;100583.75;;;23.22;100.00
12172;BME280;6149;52.418;13.668;2022-08-19T12:11:21;100581.22;;;23.20;100.00
12172;BME280;6149;52.418;13.668;2022-08-19T12:13:49;100587.63;;;23.19;100.00
12172;BME280;6149;52.418;13.668;2022-08-19T12:16:19;100588.69;;;23.26;100.00
12172;BME280;6149;52.418;13.668;2022-08-19T12:18:48;100593.59;;;23.31;100.00
12172;BME280;6149;52.418;13.668;2022-08-19T12:21:18;100595.44;;;23.30;100.00
12172;BME280;6149;52.418;13.668;2022-08-19T12:23:48;100593.91;;;23.28;100.00
12172;BME280;6149;52.418;13.668;2022-08-19T12:26:16;100591.91;;;23.30;100.00
12172;BME280;6149;52.418;13.668;2022-08-19T12:28:44;100590.84;;;23.23;100.00
12172;BME280;6149;52.418;13.668;2022-08-19T12:31:13;100595.25;;;23.24;100.00
12172;BME280;6149;52.418;13.668;2022-08-19T12:33:42;100598.94;;;23.23;100.00
12172;BME280;6149;52.418;13.668;2022-08-19T12:36:11;100595.41;;;23.22;100.00
12172;BME280;6149;52.418;13.668;2022-08-19T12:38:40;100595.56;;;23.21;100.00
12172;BME280;6149;52.418;13.668;2022-08-19T12:41:10;100590.16;;;23.21;100.00
12172;BME280;6149;52.418;13.668;2022-08-19T12:43:38;100588.00;;;23.24;100.00
12172;BME280;6149;52.418;13.668;2022-08-19T12:46:06;100586.66;;;23.28;100.00
12172;BME280;6149;52.418;13.668;2022-08-19T12:48:35;100594.44;;;23.31;100.00
12172;BME280;6149;52.418;13.668;2022-08-19T12:51:08;100590.03;;;23.30;100.00